Time;durP1;ratioP1;P1;durP2;ratioP2;P2;SDS_P1;SDS_P2;PMS_P1;PMS_P2;Temp;Humidity;BMP_temperature;BMP_pressure;BME280_temperature;BME280_humidity;BME280_pressure;Samples;Min_cycle;Max_cycle;Signal;HPM_P1;HPM_P2
2021/06/20 00:01:13;;;;;;;11.00;8.53;;;;;;;23.47;54.05;100232.88;128392;1098;24105;-84
2021/06/20 00:03:45;;;;;;;9.00;8.10;;;;;;;23.47;54.31;100232.88;127921;1101;22505;-82
2021/06/20 00:06:29;;;;;;;12.83;8.27;;;;;;;23.46;54.46;100229.38;127925;1101;22419;-82
2021/06/20 00:09:03;;;;;;;10.38;7.55;;;;;;;23.43;54.12;100232.58;127960;1101;22395;-82
2021/06/20 00:11:40;;;;;;;8.30;7.50;;;;;;;23.37;54.47;100233.59;127922;1101;22427;-82
2021/06/20 00:14:10;;;;;;;8.95;8.05;;;;;;;23.34;54.77;100233.30;127911;1101;22409;-81
2021/06/20 00:16:41;;;;;;;8.60;7.75;;;;;;;23.29;54.75;100244.02;127973;1101;22404;-83
2021/06/20 00:19:11;;;;;;;8.90;8.00;;;;;;;23.22;55.06;100234.25;127351;1105;22526;-81
2021/06/20 00:21:43;;;;;;;8.75;7.85;;;;;;;23.21;55.06;100226.42;127470;1104;24588;-82
2021/06/20 00:24:13;;;;;;;9.03;7.88;;;;;;;23.18;55.32;100224.23;127659;1105;22434;-82
2021/06/20 00:26:44;;;;;;;12.80;8.25;;;;;;;23.13;55.47;100222.32;127210;1105;24589;-81
2021/06/20 00:29:15;;;;;;;;;;;;;;;23.03;55.54;100216.83;127228;1108;22709;-81
2021/06/20 00:31:54;;;;;;;9.58;7.58;;;;;;;22.94;56.39;100205.67;126844;1108;21302;-81
2021/06/20 00:34:24;;;;;;;12.80;8.33;;;;;;;22.93;55.89;100216.72;126943;1108;22429;-82
2021/06/20 00:36:54;;;;;;;9.67;7.53;;;;;;;22.91;56.05;100203.45;126717;1111;22595;-82
2021/06/20 00:39:26;;;;;;;;;;;;;;;22.85;56.39;100207.16;126925;1111;25200;-82
2021/06/20 00:41:58;;;;;;;13.60;8.25;;;;;;;22.79;56.08;100203.61;126645;1111;21301;-82
2021/06/20 00:44:33;;;;;;;9.23;8.30;;;;;;;22.81;55.91;100199.84;126824;1108;24580;-81
2021/06/20 00:47:05;;;;;;;9.03;8.10;;;;;;;22.83;56.25;100203.91;126986;1106;22462;-81
2021/06/20 00:49:36;;;;;;;10.30;8.48;;;;;;;22.87;56.69;100206.91;127415;1101;24250;-81
2021/06/20 00:52:06;;;;;;;10.40;7.93;;;;;;;22.86;56.30;100208.80;127455;1105;22417;-81
2021/06/20 00:54:47;;;;;;;10.73;8.10;;;;;;;22.81;56.64;100207.92;127380;1105;24298;-82
2021/06/20 00:57:20;;;;;;;12.65;8.53;;;;;;;22.78;56.84;100199.27;127432;1104;23289;-81
2021/06/20 00:59:53;;;;;;;8.25;7.30;;;;;;;22.81;56.95;100200.65;127510;1101;22402;-82
2021/06/20 01:02:30;;;;;;;14.48;8.58;;;;;;;22.81;56.81;100197.14;128174;1098;22447;-81
2021/06/20 01:05:02;;;;;;;10.65;8.40;;;;;;;22.76;56.66;100196.03;128279;1098;22358;-81
2021/06/20 01:07:36;;;;;;;9.70;8.10;;;;;;;22.73;56.86;100193.03;128236;1098;22403;-81
2021/06/20 01:10:11;;;;;;;9.70;8.50;;;;;;;22.66;57.33;100179.77;128307;1098;22408;-81
2021/06/20 01:12:41;;;;;;;9.05;8.15;;;;;;;22.63;57.19;100188.34;128534;1098;22383;-82
2021/06/20 01:15:17;;;;;;;;;;;;;;;22.60;57.58;100175.38;128304;1098;22386;-82
2021/06/20 01:17:47;;;;;;;13.33;7.60;;;;;;;22.61;57.98;100173.49;128477;1097;22833;-81
2021/06/20 01:20:23;;;;;;;11.18;7.25;;;;;;;22.62;57.97;100184.00;128534;1098;24537;-81
2021/06/20 01:22:55;;;;;;;11.08;8.43;;;;;;;22.63;57.74;100174.88;128520;1097;25047;-80
2021/06/20 01:25:30;;;;;;;13.33;7.53;;;;;;;22.64;58.27;100173.80;128264;1098;22405;-81
2021/06/20 01:28:08;;;;;;;12.33;8.43;;;;;;;22.65;58.08;100180.00;128305;1098;22455;-82
2021/06/20 01:30:45;;;;;;;8.45;7.43;;;;;;;22.65;58.01;100182.69;128195;1098;24536;-81
2021/06/20 01:33:18;;;;;;;9.15;8.18;;;;;;;22.65;57.94;100177.30;127918;1101;22768;-81
2021/06/20 01:35:49;;;;;;;13.28;7.18;;;;;;;22.62;57.88;100173.23;127954;1101;22411;-81
2021/06/20 01:38:27;;;;;;;10.75;8.03;;;;;;;22.59;58.29;100178.30;128228;1101;22411;-81
2021/06/20 01:40:57;;;;;;;8.20;7.23;;;;;;;22.59;58.63;100178.30;128065;1101;22386;-81
2021/06/20 01:43:28;;;;;;;10.65;7.30;;;;;;;22.61;58.64;100184.27;127958;1101;22385;-80
2021/06/20 01:45:58;;;;;;;11.00;7.67;;;;;;;22.63;58.35;100191.03;127372;1105;25074;-81
2021/06/20 01:48:29;;;;;;;9.38;7.70;;;;;;;22.64;58.39;100181.06;127371;1105;22312;-81
2021/06/20 01:50:59;;;;;;;11.73;7.95;;;;;;;22.64;58.46;100186.45;127662;1098;25036;-81
2021/06/20 01:53:40;;;;;;;8.58;7.78;;;;;;;22.63;58.86;100182.14;128253;1098;22391;-81
2021/06/20 01:56:13;;;;;;;9.13;7.53;;;;;;;22.63;58.60;100177.57;128241;1098;22413;-83
2021/06/20 01:58:45;;;;;;;9.20;8.40;;;;;;;22.60;58.92;100169.19;127982;1101;22387;-84
2021/06/20 02:01:17;;;;;;;20.20;9.43;;;;;;;22.55;58.80;100173.42;127972;1101;25069;-84
2021/06/20 02:03:52;;;;;;;16.60;8.55;;;;;;;22.47;58.92;100167.68;128009;1098;22381;-84
2021/06/20 02:06:23;;;;;;;14.18;8.23;;;;;;;22.39;59.26;100163.56;127993;1098;22385;-84
2021/06/20 02:08:54;;;;;;;8.78;7.98;;;;;;;22.31;59.34;100161.28;127956;1101;22399;-83
2021/06/20 02:11:26;;;;;;;9.38;8.05;;;;;;;22.27;59.90;100163.66;128149;1098;22383;-84
2021/06/20 02:13:58;;;;;;;9.45;8.53;;;;;;;22.26;59.94;100158.55;128229;1098;22385;-84
2021/06/20 02:16:28;;;;;;;10.45;7.05;;;;;;;22.25;60.14;100164.97;128310;1098;22565;-84
2021/06/20 02:18:58;;;;;;;12.33;8.15;;;;;;;22.24;60.08;100169.55;128336;1098;22374;-84
2021/06/20 02:21:29;;;;;;;8.98;7.28;;;;;;;22.24;60.04;100163.35;127991;1101;22353;-84
2021/06/20 02:24:01;;;;;;;10.00;7.43;;;;;;;22.24;60.15;100169.55;127952;1101;24657;-82
2021/06/20 02:26:31;;;;;;;8.13;7.40;;;;;;;22.27;60.39;100170.93;127352;1101;23179;-82
2021/06/20 02:29:02;;;;;;;9.58;8.35;;;;;;;22.32;60.40;100160.22;127924;1101;24232;-82
2021/06/20 02:31:32;;;;;;;9.63;8.63;;;;;;;22.37;59.93;100165.67;127908;1101;22726;-82
2021/06/20 02:34:02;;;;;;;12.45;8.05;;;;;;;22.40;59.98;100169.75;127909;1101;22449;-82
2021/06/20 02:36:32;;;;;;;9.10;7.85;;;;;;;22.37;59.77;100162.17;127840;1101;22393;-81
2021/06/20 02:39:04;;;;;;;11.53;8.45;;;;;;;22.30;59.75;100165.05;127865;1098;22872;-82
2021/06/20 02:41:35;;;;;;;9.03;7.75;;;;;;;22.22;60.03;100155.52;128262;1098;22380;-82
2021/06/20 02:44:05;;;;;;;8.83;7.93;;;;;;;22.19;59.99;100155.20;127972;1098;22395;-82
2021/06/20 02:46:36;;;;;;;9.58;8.63;;;;;;;22.15;60.31;100151.36;128266;1098;22588;-82
2021/06/20 02:49:06;;;;;;;8.55;7.68;;;;;;;22.11;60.46;100160.99;128274;1098;24303;-83
2021/06/20 02:51:42;;;;;;;9.98;8.65;;;;;;;22.10;60.45;100168.25;127934;1101;22410;-82
2021/06/20 02:54:14;;;;;;;9.98;8.98;;;;;;;22.08;60.72;100155.03;127950;1101;22410;-81
2021/06/20 02:56:47;;;;;;;9.18;7.85;;;;;;;22.07;60.59;100157.98;127339;1103;22427;-81
2021/06/20 02:59:17;;;;;;;10.30;7.95;;;;;;;22.08;60.84;100148.84;127385;1105;22407;-84
2021/06/20 03:01:50;;;;;;;10.90;8.50;;;;;;;22.07;60.58;100145.34;127662;1101;22416;-83
2021/06/20 03:04:20;;;;;;;11.03;8.55;;;;;;;22.02;60.89;100137.19;127396;1105;22444;-84
2021/06/20 03:06:50;;;;;;;10.48;8.45;;;;;;;22.00;60.85;100141.22;127451;1105;22891;-84
2021/06/20 03:09:21;;;;;;;11.05;8.15;;;;;;;21.95;61.05;100135.75;127417;1101;22463;-84
2021/06/20 03:11:56;;;;;;;9.00;8.17;;;;;;;21.94;60.98;100131.45;127994;1100;22552;-84
2021/06/20 03:14:29;;;;;;;9.73;7.15;;;;;;;21.89;61.16;100126.80;127965;1098;22852;-83
2021/06/20 03:17:02;;;;;;;15.97;8.30;;;;;;;21.90;61.58;100117.69;128247;1098;23175;-84
2021/06/20 03:19:37;;;;;;;12.15;8.95;;;;;;;21.94;61.52;100123.38;127911;1102;22269;-85
2021/06/20 03:22:08;;;;;;;11.60;7.83;;;;;;;21.93;61.22;100127.95;127910;1098;23257;-83
2021/06/20 03:24:44;;;;;;;10.88;7.95;;;;;;;21.93;61.51;100133.33;127920;1101;24262;-81
2021/06/20 03:27:16;;;;;;;8.33;7.53;;;;;;;21.93;61.41;100138.70;127383;1101;22494;-81
2021/06/20 03:29:50;;;;;;;11.33;8.15;;;;;;;21.91;61.30;100143.51;127422;1101;24212;-82
2021/06/20 03:32:21;;;;;;;10.80;7.83;;;;;;;21.89;61.07;100134.86;127848;1101;22953;-82
2021/06/20 03:34:53;;;;;;;11.23;7.67;;;;;;;21.89;61.80;100139.43;127345;1105;25291;-81
2021/06/20 03:37:23;;;;;;;8.55;7.70;;;;;;;21.88;61.57;100138.63;127515;1102;22409;-82
2021/06/20 03:39:57;;;;;;;9.60;7.80;;;;;;;21.91;61.78;100140.01;127427;1105;22426;-82
2021/06/20 03:42:27;;;;;;;9.28;7.70;;;;;;;21.92;61.77;100139.75;127389;1101;22412;-82
2021/06/20 03:44:57;;;;;;;10.63;7.38;;;;;;;21.91;61.98;100135.44;127819;1101;24294;-82
2021/06/20 03:47:28;;;;;;;11.53;7.67;;;;;;;21.89;61.75;100137.55;127938;1101;22381;-82
2021/06/20 03:50:06;;;;;;;12.23;8.63;;;;;;;21.90;62.54;100133.02;127364;1105;22413;-82
2021/06/20 03:52:40;;;;;;;10.00;8.98;;;;;;;21.92;62.17;100145.13;127634;1101;22492;-82
2021/06/20 03:55:12;;;;;;;12.03;8.88;;;;;;;21.94;62.19;100148.39;127853;1101;22353;-82
2021/06/20 03:57:43;;;;;;;13.35;9.10;;;;;;;21.97;62.23;100147.91;127394;1101;22433;-83
2021/06/20 04:00:15;;;;;;;10.53;8.70;;;;;;;21.98;62.30;100146.02;127369;1101;24374;-84
2021/06/20 04:02:50;;;;;;;15.75;8.93;;;;;;;22.01;62.15;100143.64;127271;1105;24579;-82
2021/06/20 04:05:25;;;;;;;9.38;8.38;;;;;;;22.04;62.11;100131.58;127394;1105;22994;-82
2021/06/20 04:07:55;;;;;;;14.37;8.17;;;;;;;22.06;62.03;100124.91;127385;1104;22930;-81
2021/06/20 04:10:28;;;;;;;10.35;8.28;;;;;;;22.09;62.48;100126.25;127412;1105;22591;-81
2021/06/20 04:13:03;;;;;;;8.78;7.60;;;;;;;22.13;62.31;100123.91;127380;1104;22511;-81
2021/06/20 04:15:35;;;;;;;10.23;7.98;;;;;;;22.20;62.45;100128.06;127526;1105;22903;-82
2021/06/20 04:18:08;;;;;;;14.25;7.95;;;;;;;22.28;61.90;100132.99;127876;1101;22663;-82
2021/06/20 04:20:40;;;;;;;17.50;9.05;;;;;;;22.37;61.76;100133.38;127540;1101;22427;-83
2021/06/20 04:23:19;;;;;;;9.88;7.63;;;;;;;22.46;61.69;100141.81;128019;1100;22391;-81
2021/06/20 04:25:52;;;;;;;8.55;6.60;;;;;;;22.57;61.01;100148.95;128257;1101;22396;-82
2021/06/20 04:28:24;;;;;;;11.35;6.28;;;;;;;22.63;61.06;100150.64;128215;1100;22413;-83
2021/06/20 04:30:56;;;;;;;11.50;6.48;;;;;;;22.71;60.74;100154.76;128261;1100;22395;-84
2021/06/20 04:33:27;;;;;;;8.23;6.75;;;;;;;22.82;60.47;100161.88;127873;1101;22417;-83
2021/06/20 04:35:58;;;;;;;10.08;7.13;;;;;;;22.92;60.40;100166.55;127360;1104;24387;-83
2021/06/20 04:38:28;;;;;;;8.28;7.48;;;;;;;23.02;59.72;100177.46;127405;1101;22417;-84
2021/06/20 04:41:03;;;;;;;9.63;6.90;;;;;;;23.14;59.53;100169.23;127245;1105;23196;-82
2021/06/20 04:44:42;;;;;;;13.53;7.58;;;;;;;23.23;58.96;100182.00;127242;1105;22457;-82
2021/06/20 04:46:32;;;;;;;10.18;6.08;;;;;;;23.32;58.60;100182.32;127227;1105;22431;-84
2021/06/20 04:49:07;;;;;;;13.08;6.63;;;;;;;23.35;57.97;100183.70;127209;1105;22469;-85
2021/06/20 04:51:40;;;;;;;7.33;6.65;;;;;;;23.36;57.92;100182.63;126963;1105;22507;-84
2021/06/20 04:54:14;;;;;;;6.95;6.35;;;;;;;23.44;57.97;100182.17;127109;1104;22408;-85
2021/06/20 04:56:44;;;;;;;9.45;6.03;;;;;;;23.55;58.23;100181.17;127205;1104;24556;-84
2021/06/20 04:59:14;;;;;;;7.93;6.15;;;;;;;23.68;57.50;100185.35;127161;1105;22486;-84
2021/06/20 05:01:45;;;;;;;9.00;6.50;;;;;;;23.81;57.59;100190.30;127530;1101;23355;-85
2021/06/20 05:04:15;;;;;;;6.80;5.80;;;;;;;23.94;56.86;100195.24;128012;1101;22428;-85
2021/06/20 05:06:45;;;;;;;9.25;6.05;;;;;;;24.07;56.39;100191.28;127937;1102;22605;-84
2021/06/20 05:09:15;;;;;;;8.83;6.15;;;;;;;24.21;56.40;100188.92;127990;1101;23354;-85
2021/06/20 05:11:45;;;;;;;5.83;5.23;;;;;;;24.34;55.63;100203.84;127948;1098;22406;-85
2021/06/20 05:14:18;;;;;;;7.48;6.48;;;;;;;24.46;55.65;100204.48;128286;1098;23153;-84
2021/06/20 05:16:48;;;;;;;10.43;5.85;;;;;;;24.60;55.10;100226.41;128341;1098;22385;-85
2021/06/20 05:19:19;;;;;;;8.28;6.18;;;;;;;24.75;54.63;100222.95;128320;1098;22487;-84
2021/06/20 05:21:49;;;;;;;6.28;5.30;;;;;;;24.90;54.67;100228.41;128275;1098;24212;-84
2021/06/20 05:24:19;;;;;;;8.25;5.48;;;;;;;25.07;54.01;100220.08;128310;1098;22481;-85
2021/06/20 05:26:50;;;;;;;11.80;7.30;;;;;;;25.25;53.52;100222.28;128334;1098;22381;-85
2021/06/20 05:29:20;;;;;;;8.23;7.30;;;;;;;25.45;52.77;100220.69;128324;1098;22400;-85
2021/06/20 05:31:50;;;;;;;6.67;5.27;;;;;;;25.63;52.16;100225.58;127989;1101;25072;-84
2021/06/20 05:34:21;;;;;;;9.08;5.65;;;;;;;25.87;51.66;100231.27;127973;1101;24547;-83
2021/06/20 05:36:51;;;;;;;5.40;4.58;;;;;;;26.09;51.01;100224.73;127970;1101;22458;-83
2021/06/20 05:39:21;;;;;;;6.95;5.08;;;;;;;26.32;50.47;100218.72;128002;1098;24618;-85
2021/06/20 05:41:52;;;;;;;6.60;4.43;;;;;;;26.61;49.32;100228.95;128299;1098;22382;-84
2021/06/20 05:44:22;;;;;;;5.68;4.93;;;;;;;26.88;48.59;100218.52;127827;1101;22827;-84
2021/06/20 05:46:56;;;;;;;8.80;5.18;;;;;;;27.17;48.16;100226.78;127242;1105;25728;-85
2021/06/20 05:49:26;;;;;;;6.83;5.10;;;;;;;27.60;47.64;100231.64;126888;1105;22979;-82
2021/06/20 05:51:56;;;;;;;8.33;4.20;;;;;;;28.03;46.54;100232.63;127198;1104;23376;-84
2021/06/20 05:54:26;;;;;;;10.53;4.55;;;;;;;28.46;45.76;100226.48;127553;1105;22447;-83
2021/06/20 05:56:55;;;;;;;6.60;3.95;;;;;;;28.88;44.16;100211.28;127170;1104;22419;-82
2021/06/20 05:59:26;;;;;;;5.08;3.45;;;;;;;29.22;42.74;100213.80;127357;1105;24269;-83
2021/06/20 06:01:56;;;;;;;7.88;4.00;;;;;;;29.50;41.27;100215.53;127168;1101;22497;-84
2021/06/20 06:04:25;;;;;;;6.23;3.15;;;;;;;29.60;40.29;100211.06;127508;1101;24521;-84
2021/06/20 06:06:55;;;;;;;4.98;3.35;;;;;;;29.53;40.00;100214.94;127753;1098;22381;-86
2021/06/20 06:09:25;;;;;;;5.90;3.03;;;;;;;29.55;40.00;100212.70;128055;1098;24540;-83
2021/06/20 06:11:56;;;;;;;7.30;3.28;;;;;;;29.91;39.63;100212.13;128054;1097;22546;-81
2021/06/20 06:14:26;;;;;;;8.20;2.85;;;;;;;30.10;38.01;100212.05;127650;1101;24527;-82
2021/06/20 06:16:57;;;;;;;;;;;;;;;30.18;38.29;100215.98;127737;1101;22397;-82
2021/06/20 06:19:27;;;;;;;5.53;4.00;;;;;;;30.40;38.49;100220.77;127881;1105;21282;-84
2021/06/20 06:21:57;;;;;;;5.00;2.85;;;;;;;30.50;37.39;100227.94;127412;1101;22514;-82
2021/06/20 06:24:27;;;;;;;4.00;2.63;;;;;;;30.61;37.85;100218.43;127952;1101;22410;-83
2021/06/20 06:26:57;;;;;;;5.50;3.07;;;;;;;30.95;36.78;100220.71;127922;1101;22417;-83
2021/06/20 06:29:27;;;;;;;4.98;2.68;;;;;;;31.18;35.70;100218.82;127903;1101;23833;-82
2021/06/20 06:31:57;;;;;;;6.18;3.20;;;;;;;31.20;34.99;100221.26;127934;1098;22401;-84
2021/06/20 06:34:27;;;;;;;3.88;2.85;;;;;;;31.25;34.58;100212.94;128242;1098;22401;-82
2021/06/20 06:36:56;;;;;;;3.70;2.40;;;;;;;31.44;34.54;100210.86;128282;1098;22383;-82
2021/06/20 06:39:27;;;;;;;5.13;3.23;;;;;;;31.49;34.01;100213.48;128390;1096;22379;-82
2021/06/20 06:41:58;;;;;;;6.28;2.65;;;;;;;31.35;33.57;100208.06;128282;1101;23443;-82
2021/06/20 06:44:28;;;;;;;3.68;2.70;;;;;;;31.32;33.56;100214.17;128323;1101;22439;-82
2021/06/20 06:46:59;;;;;;;5.93;2.65;;;;;;;31.53;33.66;100216.39;128344;1100;22398;-85
2021/06/20 06:49:29;;;;;;;;;;;;;;;31.76;33.31;100223.44;128125;1098;22476;-83
2021/06/20 06:51:59;;;;;;;3.13;1.88;;;;;;;31.78;33.51;100220.38;128057;1101;21500;-82
2021/06/20 06:54:29;;;;;;;7.53;2.58;;;;;;;31.79;33.19;100214.63;127814;1101;22404;-82
2021/06/20 06:57:01;;;;;;;8.58;3.20;;;;;;;31.82;32.86;100204.98;127826;1105;22492;-82
2021/06/20 06:59:32;;;;;;;4.83;3.65;;;;;;;31.97;32.82;100206.54;127932;1101;22430;-84
2021/06/20 07:02:04;;;;;;;5.28;2.43;;;;;;;32.03;32.20;100211.55;128127;1101;24546;-83
2021/06/20 07:04:35;;;;;;;3.30;2.50;;;;;;;32.16;32.14;100209.02;128036;1101;22870;-82
2021/06/20 07:07:05;;;;;;;6.17;2.47;;;;;;;32.35;31.41;100213.09;127917;1101;23067;-82
2021/06/20 07:09:38;;;;;;;4.08;2.38;;;;;;;32.42;30.91;100211.83;127923;1101;22426;-83
2021/06/20 07:12:08;;;;;;;6.55;3.75;;;;;;;32.55;31.22;100213.67;128031;1101;25184;-82
2021/06/20 07:14:38;;;;;;;;;;;;;;;32.72;30.41;100210.16;128075;1101;23171;-84
2021/06/20 07:17:09;;;;;;;3.48;2.33;;;;;;;32.76;30.81;100203.75;127724;1101;21327;-83
2021/06/20 07:19:39;;;;;;;3.30;2.85;;;;;;;32.91;30.18;100201.66;127831;1101;24233;-82
2021/06/20 07:22:09;;;;;;;7.13;2.63;;;;;;;33.04;30.26;100197.98;127926;1098;22391;-83
2021/06/20 07:24:40;;;;;;;8.58;2.70;;;;;;;33.28;30.20;100195.55;128661;1098;24551;-83
2021/06/20 07:27:11;;;;;;;;;;;;;;;33.46;29.19;100184.59;128417;1098;22464;-83
2021/06/20 07:29:45;;;;;;;5.55;2.30;;;;;;;33.50;29.74;100191.05;128422;1098;23445;-83
2021/06/20 07:32:16;;;;;;;3.05;2.20;;;;;;;33.55;29.30;100181.84;128642;1098;22406;-83
2021/06/20 07:34:46;;;;;;;2.77;2.07;;;;;;;33.62;28.59;100185.72;128446;1098;23328;-82
2021/06/20 07:37:21;;;;;;;4.50;2.30;;;;;;;33.70;28.72;100173.91;128583;1096;23157;-83
2021/06/20 07:39:50;;;;;;;2.80;2.10;;;;;;;33.69;28.29;100169.58;128386;1098;22388;-83
2021/06/20 07:42:21;;;;;;;;;;;;;;;33.41;29.20;100157.37;128451;1098;22799;-83
2021/06/20 07:44:51;;;;;;;2.28;2.03;;;;;;;33.52;29.17;100164.13;128374;1098;21256;-83
2021/06/20 07:47:21;;;;;;;3.73;2.43;;;;;;;33.74;28.69;100169.38;128586;1098;22474;-84
2021/06/20 07:49:51;;;;;;;6.48;2.83;;;;;;;33.77;29.05;100167.93;128386;1098;22405;-83
2021/06/20 07:52:21;;;;;;;4.35;2.80;;;;;;;33.84;28.13;100159.20;128406;1098;22426;-82
2021/06/20 07:54:50;;;;;;;3.30;2.40;;;;;;;33.95;27.66;100152.21;128347;1098;22392;-84
2021/06/20 07:57:21;;;;;;;4.93;2.68;;;;;;;34.02;28.29;100151.73;128240;1101;24633;-84
2021/06/20 07:59:52;;;;;;;5.03;2.53;;;;;;;34.04;27.98;100161.23;128301;1101;25071;-83
2021/06/20 08:02:22;;;;;;;5.03;2.53;;;;;;;33.95;28.04;100158.49;128343;1101;24227;-83
2021/06/20 08:04:52;;;;;;;3.95;2.00;;;;;;;33.94;28.56;100150.61;127914;1101;22433;-82
2021/06/20 08:07:22;;;;;;;4.73;2.30;;;;;;;33.84;28.51;100150.98;127685;1101;22519;-83
2021/06/20 08:09:56;;;;;;;4.85;2.78;;;;;;;33.67;29.14;100146.38;127983;1101;22466;-82
2021/06/20 08:12:26;;;;;;;3.03;2.48;;;;;;;33.54;28.77;100141.91;127801;1103;22674;-83
2021/06/20 08:14:57;;;;;;;2.88;2.23;;;;;;;33.39;29.49;100145.92;127481;1101;24582;-83
2021/06/20 08:17:28;;;;;;;3.83;2.30;;;;;;;33.25;29.42;100135.17;127755;1101;22381;-84
2021/06/20 08:19:59;;;;;;;25.05;4.30;;;;;;;33.28;30.18;100146.27;127740;1100;23436;-80
2021/06/20 08:22:29;;;;;;;7.35;2.40;;;;;;;33.16;30.50;100140.68;127689;1101;22418;-83
2021/06/20 08:25:01;;;;;;;4.58;2.55;;;;;;;33.07;29.89;100144.55;127976;1101;22581;-83
2021/06/20 08:27:34;;;;;;;4.95;2.58;;;;;;;32.58;30.53;100131.00;127897;1101;22507;-83
2021/06/20 08:30:14;;;;;;;11.58;2.95;;;;;;;32.26;30.73;100134.96;127965;1098;22386;-83
2021/06/20 08:32:52;;;;;;;4.48;2.65;;;;;;;32.04;31.57;100122.98;128312;1098;22388;-82
2021/06/20 08:35:50;;;;;;;3.20;2.43;;;;;;;31.88;32.01;100111.69;128328;1098;22381;-83
2021/06/20 08:38:29;;;;;;;5.20;2.68;;;;;;;31.99;32.27;100114.13;128041;1100;22417;-83
2021/06/20 08:41:03;;;;;;;3.07;2.40;;;;;;;32.11;31.71;100112.40;127968;1101;22414;-83
2021/06/20 08:43:35;;;;;;;4.35;2.10;;;;;;;32.09;31.64;100116.59;127931;1101;22750;-83
2021/06/20 08:46:19;;;;;;;8.73;5.03;;;;;;;31.92;31.79;100100.13;128007;1101;24553;-83
2021/06/20 08:48:52;;;;;;;7.38;3.40;;;;;;;32.06;31.60;100095.38;128094;1101;22456;-82
2021/06/20 08:51:23;;;;;;;4.15;2.33;;;;;;;32.29;30.89;100096.86;128001;1104;22411;-83
2021/06/20 08:54:01;;;;;;;3.10;2.25;;;;;;;32.46;30.50;100092.56;127339;1104;22456;-82
2021/06/20 08:56:33;;;;;;;6.98;2.78;;;;;;;32.62;30.78;100098.34;127488;1105;22854;-83
2021/06/20 08:59:15;;;;;;;5.10;2.50;;;;;;;32.87;30.38;100096.73;127503;1101;22417;-82
2021/06/20 09:01:51;;;;;;;5.55;2.13;;;;;;;33.08;29.86;100100.43;127415;1105;23131;-82
2021/06/20 09:04:36;;;;;;;3.95;2.08;;;;;;;32.86;30.29;100104.14;127228;1108;25097;-83
2021/06/20 09:07:08;;;;;;;3.85;2.60;;;;;;;32.75;30.47;100092.70;127268;1106;22432;-83
2021/06/20 09:09:52;;;;;;;6.48;2.73;;;;;;;32.87;30.28;100107.69;127193;1105;24650;-84
2021/06/20 09:12:27;;;;;;;4.93;2.30;;;;;;;32.69;30.34;100095.92;127343;1104;22453;-83
2021/06/20 09:15:11;;;;;;;5.23;2.70;;;;;;;32.83;30.36;100090.31;127578;1105;22420;-82
2021/06/20 09:17:58;;;;;;;6.30;2.68;;;;;;;32.97;29.93;100086.29;127646;1105;24547;-81
2021/06/20 09:20:46;;;;;;;6.40;2.40;;;;;;;33.09;29.95;100082.91;128125;1098;23161;-82
2021/06/20 09:23:20;;;;;;;7.18;2.83;;;;;;;33.20;29.68;100080.62;128293;1098;24518;-84
2021/06/20 09:26:32;;;;;;;;;;;;;;;;;;;;;
2021/06/20 09:29:16;;;;;;;4.88;2.10;;;;;;;33.30;29.05;100084.94;128032;1101;22386;-84
2021/06/20 09:32:37;;;;;;;;;;;;;;;;;;;;;
2021/06/20 09:35:56;;;;;;;;;;;;;;;;;;;;;
2021/06/20 09:38:41;;;;;;;6.05;2.93;;;;;;;33.46;28.35;100091.49;127973;1101;22436;-84
2021/06/20 09:41:15;;;;;;;3.38;2.40;;;;;;;33.15;28.77;100089.78;127952;1101;22514;-84
2021/06/20 09:44:03;;;;;;;5.48;2.10;;;;;;;33.14;28.93;100082.72;127894;1101;22463;-83
2021/06/20 09:46:55;;;;;;;8.43;2.93;;;;;;;33.44;28.77;100080.05;128060;1102;22502;-82
2021/06/20 09:49:30;;;;;;;7.10;2.60;;;;;;;33.65;27.65;100088.37;127914;1101;22408;-82
2021/06/20 09:52:07;;;;;;;4.30;2.05;;;;;;;33.54;27.80;100085.20;128139;1101;22412;-82
2021/06/20 09:55:01;;;;;;;5.18;1.90;;;;;;;33.56;27.96;100091.16;128262;1096;24621;-82
2021/06/20 09:57:48;;;;;;;8.88;2.45;;;;;;;33.78;28.01;100089.28;128276;1097;22388;-83
2021/06/20 10:00:19;;;;;;;3.90;2.23;;;;;;;33.93;27.46;100084.05;128187;1098;22413;-75
2021/06/20 10:02:49;;;;;;;4.83;2.30;;;;;;;33.93;27.17;100081.31;127656;1101;25059;-75
2021/06/20 10:05:19;;;;;;;11.75;3.05;;;;;;;33.72;27.37;100085.91;127985;1101;22388;-76
2021/06/20 10:07:50;;;;;;;6.90;2.08;;;;;;;33.52;27.56;100073.76;127800;1101;22433;-81
2021/06/20 10:10:30;;;;;;;;;;;;;;;;;;;;;
2021/06/20 10:13:16;;;;;;;5.40;2.25;;;;;;;33.26;27.91;100066.42;128014;1101;22386;-80
2021/06/20 10:16:29;;;;;;;8.50;3.35;;;;;;;33.14;28.44;100060.82;128135;1101;22411;-80
2021/06/20 10:19:21;;;;;;;7.10;2.00;;;;;;;33.11;28.40;100058.73;127958;1101;23354;-82
2021/06/20 10:22:12;;;;;;;3.63;1.83;;;;;;;33.10;27.83;100070.02;128004;1101;22403;-80
2021/06/20 10:24:56;;;;;;;6.25;2.28;;;;;;;33.04;28.04;100064.70;127974;1101;22398;-80
2021/06/20 10:27:37;;;;;;;7.08;2.20;;;;;;;33.10;28.37;100064.55;127949;1103;22454;-80
2021/06/20 10:30:14;;;;;;;4.38;2.00;;;;;;;33.07;28.07;100063.25;127164;1105;23925;-80
2021/06/20 10:32:48;;;;;;;3.08;2.23;;;;;;;33.01;28.11;100054.41;128012;1105;25068;-80
2021/06/20 10:35:24;;;;;;;3.08;1.78;;;;;;;32.92;28.05;100050.05;127512;1105;22443;-81
2021/06/20 10:37:54;;;;;;;4.35;2.50;;;;;;;32.81;28.42;100046.86;127458;1104;22448;-79
2021/06/20 10:40:34;;;;;;;4.65;2.33;;;;;;;32.84;28.40;100045.41;127710;1101;22866;-79
2021/06/20 10:43:20;;;;;;;5.80;1.85;;;;;;;32.75;27.60;100051.68;127698;1101;23011;-79
2021/06/20 10:45:50;;;;;;;7.18;2.08;;;;;;;32.49;27.30;100048.98;128143;1101;22923;-81
2021/06/20 10:48:37;;;;;;;3.83;1.95;;;;;;;32.34;27.72;100044.75;127900;1100;24228;-80
2021/06/20 10:51:23;;;;;;;2.23;1.60;;;;;;;32.43;27.87;100033.06;128116;1100;22416;-79
2021/06/20 10:53:59;;;;;;;4.30;1.67;;;;;;;32.46;27.94;100029.69;127747;1101;23451;-79
2021/06/20 10:57:04;;;;;;;6.08;1.98;;;;;;;32.50;27.47;100039.64;128109;1101;22407;-80
2021/06/20 10:59:39;;;;;;;7.48;2.35;;;;;;;32.43;27.53;100039.33;128101;1101;24542;-80
2021/06/20 11:02:24;;;;;;;5.35;1.50;;;;;;;32.34;27.42;100035.75;127737;1101;22390;-80
2021/06/20 11:05:03;;;;;;;5.48;1.75;;;;;;;32.27;27.17;100035.44;127779;1101;22418;-81
2021/06/20 11:07:36;;;;;;;5.23;1.80;;;;;;;32.25;26.99;100030.27;127950;1101;22398;-79
2021/06/20 11:10:24;;;;;;;2.73;1.30;;;;;;;32.14;27.09;100034.45;128175;1101;22399;-81
2021/06/20 11:12:58;;;;;;;2.70;1.55;;;;;;;31.97;27.08;100027.04;128050;1101;24640;-80
2021/06/20 11:15:29;;;;;;;7.50;2.08;;;;;;;31.93;27.16;100039.73;128406;1101;22659;-80
2021/06/20 11:18:08;;;;;;;6.30;2.08;;;;;;;31.91;27.31;100028.30;128141;1101;22417;-79
2021/06/20 11:20:38;;;;;;;4.78;1.58;;;;;;;31.83;27.46;100016.22;128342;1101;22416;-80
2021/06/20 11:23:08;;;;;;;5.90;1.80;;;;;;;31.82;27.29;100020.08;128385;1101;22416;-80
2021/06/20 11:25:39;;;;;;;9.57;2.53;;;;;;;31.80;26.82;100008.66;128107;1098;22741;-80
2021/06/20 11:28:17;;;;;;;4.90;2.53;;;;;;;31.72;27.25;100014.89;128102;1098;23143;-80
2021/06/20 11:30:49;;;;;;;5.75;2.83;;;;;;;31.71;27.50;100016.02;128212;1097;22417;-80
2021/06/20 11:33:26;;;;;;;4.60;1.58;;;;;;;31.72;27.19;100014.09;128215;1098;23160;-79
2021/06/20 11:35:56;;;;;;;2.90;1.60;;;;;;;31.75;27.42;100013.45;128285;1098;22395;-80
2021/06/20 11:38:52;;;;;;;5.65;1.80;;;;;;;31.70;27.68;100008.95;128267;1098;22682;-80
2021/06/20 11:41:24;;;;;;;6.13;2.33;;;;;;;31.75;27.84;100006.06;128203;1098;22410;-80
2021/06/20 11:44:01;;;;;;;5.48;1.80;;;;;;;31.82;27.33;100006.42;128184;1100;22383;-80
2021/06/20 11:46:34;;;;;;;5.75;2.38;;;;;;;31.83;27.77;100013.48;128141;1101;22384;-80
2021/06/20 11:49:07;;;;;;;6.63;1.68;;;;;;;31.93;27.49;100008.88;128080;1101;22385;-81
2021/06/20 11:52:04;;;;;;;2.90;1.60;;;;;;;31.89;27.46;100003.26;127795;1101;22398;-80
2021/06/20 11:54:34;;;;;;;3.58;1.75;;;;;;;31.87;27.67;100006.29;128168;1101;22482;-81